Time;durP1;ratioP1;P1;durP2;ratioP2;P2;SDS_P1;SDS_P2;PMS_P1;PMS_P2;Temp;Humidity;BMP_temperature;BMP_pressure;BME280_temperature;BME280_humidity;BME280_pressure;Samples;Min_cycle;Max_cycle;Signal;HPM_P1;HPM_P2
2021/12/25 00:00:15;;;;;;;37.35;27.80;;;23.10;97.70;;;;;;4184056;28;20052;-68
2021/12/25 00:02:19;;;;;;;44.25;29.67;;;23.20;97.50;;;;;;4187068;28;20040;-68
2021/12/25 00:04:24;;;;;;;44.53;31.42;;;23.20;97.50;;;;;;4187309;28;20491;-68
2021/12/25 00:06:28;;;;;;;52.83;34.17;;;23.20;97.40;;;;;;4177716;28;20048;-67
2021/12/25 00:08:32;;;;;;;46.97;34.88;;;23.20;97.30;;;;;;4193087;28;20052;-68
2021/12/25 00:10:37;;;;;;;47.05;32.03;;;23.20;97.30;;;;;;4169718;28;20128;-68
2021/12/25 00:12:41;;;;;;;44.58;31.25;;;23.30;97.30;;;;;;4169193;28;20049;-67
2021/12/25 00:14:45;;;;;;;40.47;29.30;;;23.30;97.30;;;;;;4186386;28;20169;-67
2021/12/25 00:16:50;;;;;;;43.67;29.98;;;23.30;97.30;;;;;;4170048;28;20056;-68
2021/12/25 00:18:54;;;;;;;41.50;29.83;;;23.30;97.50;;;;;;4177578;28;20110;-68
2021/12/25 00:21:01;;;;;;;37.60;27.38;;;23.30;97.50;;;;;;4174928;28;20053;-68
2021/12/25 00:23:06;;;;;;;39.20;26.05;;;23.30;97.50;;;;;;4177148;28;20051;-68
2021/12/25 00:25:11;;;;;;;39.90;25.23;;;23.20;97.70;;;;;;4176366;28;20056;-69
2021/12/25 00:31:50;;;;;;;47.63;25.27;;;23.00;98.30;;;;;;4175952;28;20033;-69
2021/12/25 00:33:59;;;;;;;34.50;22.80;;;23.10;98.20;;;;;;4173750;28;20400;-69
2021/12/25 00:36:04;;;;;;;37.47;21.73;;;23.10;98.40;;;;;;4176487;28;20048;-69
2021/12/25 00:38:09;;;;;;;30.73;20.52;;;23.20;98.10;;;;;;4176889;28;20087;-69
2021/12/25 00:40:13;;;;;;;26.88;19.30;;;23.20;98.10;;;;;;4178037;28;20136;-69
2021/12/25 00:42:18;;;;;;;36.97;21.65;;;23.20;98.10;;;;;;4174878;28;20321;-68
2021/12/25 00:44:22;;;;;;;34.17;20.83;;;23.10;98.30;;;;;;4173449;28;20132;-69
2021/12/25 00:46:26;;;;;;;31.73;22.52;;;23.10;98.60;;;;;;4177538;28;20156;-69
2021/12/25 00:48:31;;;;;;;32.95;24.10;;;23.20;98.60;;;;;;4175722;28;20575;-69
2021/12/25 00:50:35;;;;;;;32.65;23.85;;;23.20;98.20;;;;;;4201732;28;20044;-70
2021/12/25 00:52:39;;;;;;;31.75;21.90;;;23.30;98.10;;;;;;4179884;28;20036;-68
2021/12/25 00:54:45;;;;;;;34.50;22.58;;;23.30;98.00;;;;;;4174568;28;20515;-68
2021/12/25 00:56:49;;;;;;;28.10;19.55;;;23.40;97.80;;;;;;4177390;28;20044;-68
2021/12/25 00:58:53;;;;;;;27.80;19.25;;;23.40;97.70;;;;;;4176031;28;20400;-69
2021/12/25 01:00:58;;;;;;;30.40;19.60;;;23.40;97.70;;;;;;4172152;28;20485;-69
2021/12/25 01:03:03;;;;;;;27.23;18.58;;;23.40;97.80;;;;;;4168657;28;20049;-69
2021/12/25 01:05:09;;;;;;;28.67;18.88;;;23.40;97.80;;;;;;4176304;28;20049;-69
2021/12/25 01:07:13;;;;;;;23.70;17.63;;;23.40;97.70;;;;;;4201505;28;20048;-69
2021/12/25 01:09:23;;;;;;;30.20;17.00;;;23.50;97.50;;;;;;4175044;28;20036;-69
2021/12/25 01:11:29;;;;;;;27.52;17.45;;;23.50;97.40;;;;;;4172396;28;20049;-69
2021/12/25 01:13:40;;;;;;;24.95;17.13;;;23.50;97.40;;;;;;4172951;28;20467;-70
2021/12/25 01:18:50;;;;;;;24.15;16.73;;;23.60;97.40;;;;;;4174607;28;20171;-68
2021/12/25 01:25:32;;;;;;;21.98;12.95;;;23.60;97.30;;;;;;4176844;28;20048;-69
2021/12/25 01:35:13;;;;;;;16.52;11.27;;;23.90;96.40;;;;;;4173265;28;20125;-69
2021/12/25 01:47:48;;;;;;;12.60;9.20;;;24.00;96.40;;;;;;4170622;28;20616;-69
2021/12/25 01:49:52;;;;;;;11.85;9.15;;;24.00;95.90;;;;;;4173962;28;20523;-69
2021/12/25 01:51:57;;;;;;;14.27;9.10;;;24.00;95.90;;;;;;4170737;28;20223;-68
2021/12/25 01:54:02;;;;;;;11.88;9.65;;;24.10;95.80;;;;;;4173786;28;20344;-69
2021/12/25 01:56:06;;;;;;;15.45;9.57;;;24.20;95.50;;;;;;4168775;28;20037;-69
2021/12/25 01:58:12;;;;;;;15.77;9.55;;;24.20;95.40;;;;;;4173916;28;20495;-69
2021/12/25 02:00:24;;;;;;;12.55;9.57;;;24.30;95.20;;;;;;4197202;28;20033;-69
2021/12/25 02:02:29;;;;;;;12.67;9.70;;;24.40;95.10;;;;;;4172759;28;20033;-69
2021/12/25 02:04:33;;;;;;;14.23;9.50;;;24.50;95.00;;;;;;4171667;28;20593;-69
2021/12/25 02:06:38;;;;;;;14.55;10.50;;;24.50;95.00;;;;;;4175019;28;20106;-75
2021/12/25 02:08:43;;;;;;;21.42;10.88;;;24.50;95.00;;;;;;4174083;28;20104;-71
2021/12/25 02:10:47;;;;;;;72.18;13.95;;;24.30;95.20;;;;;;4173450;28;20044;-71
2021/12/25 02:12:52;;;;;;;18.63;10.05;;;24.40;95.20;;;;;;4172587;28;20481;-73
2021/12/25 02:15:18;;;;;;;14.93;9.23;;;24.50;95.00;;;;;;4160566;28;20048;-68
2021/12/25 02:17:53;;;;;;;18.50;10.13;;;24.40;94.80;;;;;;4169575;28;20040;-69
2021/12/25 02:20:28;;;;;;;52.13;11.80;;;24.50;95.00;;;;;;4177110;28;20140;-74
2021/12/25 02:22:33;;;;;;;179.80;20.08;;;24.60;94.90;;;;;;4169648;28;20057;-74
2021/12/25 02:24:38;;;;;;;107.50;17.23;;;24.70;94.80;;;;;;4169938;28;20040;-73
2021/12/25 02:26:44;;;;;;;22.05;10.38;;;24.80;94.50;;;;;;4197535;28;20573;-74
2021/12/25 02:28:57;;;;;;;20.10;9.90;;;24.80;94.30;;;;;;4167554;28;20040;-75
2021/12/25 02:31:07;;;;;;;16.65;9.68;;;24.80;94.40;;;;;;4172878;28;20037;-75
2021/12/25 02:33:13;;;;;;;14.82;9.10;;;24.90;94.20;;;;;;4174918;28;20101;-75
2021/12/25 02:35:18;;;;;;;13.20;9.55;;;24.90;94.10;;;;;;4173256;28;20055;-76
2021/12/25 02:37:22;;;;;;;11.32;9.18;;;24.90;94.10;;;;;;4175413;28;20091;-75
2021/12/25 02:39:27;;;;;;;16.48;9.85;;;24.90;94.00;;;;;;4176012;28;20057;-76
2021/12/25 02:41:32;;;;;;;12.63;9.65;;;24.90;93.90;;;;;;4178297;28;20049;-76
2021/12/25 02:43:37;;;;;;;16.08;10.00;;;25.00;94.00;;;;;;4176309;28;20118;-76
2021/12/25 02:45:41;;;;;;;16.25;10.13;;;25.10;93.80;;;;;;4176132;28;20494;-76
2021/12/25 02:47:52;;;;;;;15.43;10.20;;;25.10;93.90;;;;;;4177414;28;20051;-76
2021/12/25 02:49:57;;;;;;;12.80;9.55;;;25.20;93.80;;;;;;4176772;28;20045;-76
2021/12/25 02:52:02;;;;;;;13.05;9.25;;;25.20;93.70;;;;;;4174774;28;20140;-76
2021/12/25 02:54:07;;;;;;;17.50;9.60;;;25.30;93.60;;;;;;4175649;28;20087;-76
2021/12/25 02:56:12;;;;;;;12.90;10.10;;;25.30;93.40;;;;;;4177401;28;20053;-76
2021/12/25 02:58:21;;;;;;;16.45;9.60;;;25.40;93.40;;;;;;4176346;28;20045;-76
2021/12/25 03:00:29;;;;;;;12.52;9.00;;;25.40;93.30;;;;;;4175009;28;20060;-77
2021/12/25 03:02:34;;;;;;;13.05;9.02;;;25.40;93.10;;;;;;4175770;28;20052;-76
2021/12/25 03:04:41;;;;;;;11.27;8.93;;;25.50;93.10;;;;;;4179073;28;20243;-76
2021/12/25 03:06:47;;;;;;;12.05;8.27;;;25.50;93.20;;;;;;4176974;28;20033;-72
2021/12/25 03:08:52;;;;;;;12.38;8.23;;;25.50;93.10;;;;;;4176879;28;20045;-71
2021/12/25 03:10:59;;;;;;;12.25;8.73;;;25.60;93.00;;;;;;4203943;28;20048;-72
2021/12/25 03:13:18;;;;;;;10.88;8.02;;;25.70;92.80;;;;;;4180250;28;20065;-71
2021/12/25 03:15:31;;;;;;;11.27;8.68;;;25.70;92.80;;;;;;4177015;28;20060;-71
2021/12/25 03:17:37;;;;;;;11.40;9.20;;;25.80;92.90;;;;;;4177489;28;20261;-71
2021/12/25 03:19:41;;;;;;;12.30;8.90;;;25.90;92.80;;;;;;4176746;28;20056;-71
2021/12/25 03:21:46;;;;;;;11.65;8.10;;;25.90;92.50;;;;;;4177353;28;20049;-72
2021/12/25 03:23:52;;;;;;;13.07;8.52;;;26.00;92.50;;;;;;4177706;28;20151;-72
2021/12/25 03:25:58;;;;;;;11.38;7.53;;;26.10;92.40;;;;;;4178217;28;20398;-71
2021/12/25 03:28:02;;;;;;;10.45;7.70;;;26.10;92.40;;;;;;4176277;28;20507;-71
2021/12/25 03:30:09;;;;;;;10.77;7.38;;;26.20;92.10;;;;;;4170142;28;20072;-72
2021/12/25 03:32:13;;;;;;;10.52;7.15;;;26.20;92.00;;;;;;4174604;28;20040;-71
2021/12/25 03:34:18;;;;;;;9.93;7.43;;;26.30;91.80;;;;;;4193447;28;20040;-71
2021/12/25 03:36:22;;;;;;;12.13;7.88;;;26.30;91.70;;;;;;4178858;28;20048;-70
2021/12/25 03:38:27;;;;;;;11.63;7.32;;;26.40;91.50;;;;;;4177535;28;20057;-72
2021/12/25 03:40:31;;;;;;;10.93;7.15;;;26.50;91.50;;;;;;4178714;28;20049;-71
2021/12/25 03:42:36;;;;;;;9.32;7.43;;;26.50;91.60;;;;;;4177177;28;20329;-72
2021/12/25 03:44:40;;;;;;;13.20;7.40;;;26.40;91.40;;;;;;4200902;28;20576;-70
2021/12/25 03:46:45;;;;;;;11.60;8.13;;;26.50;91.50;;;;;;4174774;28;20044;-70
2021/12/25 03:57:53;;;;;;;11.07;7.38;;;26.80;90.60;;;;;;4198845;28;20051;-71
2021/12/25 04:00:03;;;;;;;13.57;8.00;;;26.80;90.70;;;;;;4180391;28;20053;-71
2021/12/25 04:02:22;;;;;;;14.93;7.65;;;26.80;90.60;;;;;;4174751;28;20090;-72
2021/12/25 04:06:43;;;;;;;9.80;7.82;;;26.80;90.60;;;;;;4175804;28;20443;-71
2021/12/25 04:08:51;;;;;;;9.20;7.47;;;26.70;90.80;;;;;;4177235;28;20111;-70
2021/12/25 04:11:03;;;;;;;9.45;6.82;;;26.80;90.80;;;;;;4174546;28;20319;-71
2021/12/25 04:13:09;;;;;;;14.18;7.32;;;26.90;90.50;;;;;;4176091;28;20041;-71
2021/12/25 04:15:14;;;;;;;8.75;7.07;;;26.90;90.30;;;;;;4173738;28;20052;-70
2021/12/25 04:17:18;;;;;;;11.15;7.15;;;26.90;90.50;;;;;;4200853;28;20130;-71
2021/12/25 04:19:23;;;;;;;9.48;6.70;;;27.00;90.30;;;;;;4201601;28;20135;-71
2021/12/25 04:21:28;;;;;;;9.95;7.15;;;27.10;90.50;;;;;;4180295;28;20052;-70
2021/12/25 04:23:35;;;;;;;10.27;6.50;;;27.10;90.00;;;;;;4196894;28;20049;-70
2021/12/25 04:25:40;;;;;;;10.75;6.95;;;27.10;90.10;;;;;;4175643;28;20067;-70
2021/12/25 04:27:45;;;;;;;12.32;7.07;;;27.20;90.00;;;;;;4172792;28;20142;-70
2021/12/25 04:30:01;;;;;;;10.75;6.18;;;27.30;90.10;;;;;;4203832;28;20040;-69
2021/12/25 04:48:25;;;;;;;9.05;6.32;;;27.50;89.20;;;;;;4195987;28;20518;-69
2021/12/25 05:04:01;;;;;;;10.40;6.32;;;27.70;88.20;;;;;;4173116;28;20103;-70
2021/12/25 05:06:10;;;;;;;8.43;6.30;;;27.90;88.60;;;;;;4171734;28;20068;-70
2021/12/25 05:08:17;;;;;;;10.70;6.20;;;27.80;87.80;;;;;;4171850;28;20076;-69
2021/12/25 05:10:22;;;;;;;9.00;6.35;;;27.80;87.90;;;;;;4173591;28;20041;-69
2021/12/25 05:12:27;;;;;;;13.10;6.75;;;27.70;88.10;;;;;;4171455;28;20391;-71
2021/12/25 05:14:31;;;;;;;10.00;6.07;;;27.80;88.00;;;;;;4172248;28;20041;-69
2021/12/25 05:16:36;;;;;;;7.70;6.28;;;27.70;87.70;;;;;;4170983;28;20090;-70
2021/12/25 05:18:42;;;;;;;9.38;6.45;;;27.70;87.90;;;;;;4173577;28;20304;-71
2021/12/25 05:20:46;;;;;;;12.45;7.55;;;27.70;88.10;;;;;;4198848;28;20659;-70
2021/12/25 05:22:52;;;;;;;8.85;6.40;;;27.70;88.00;;;;;;4172307;28;20609;-71
2021/12/25 05:24:57;;;;;;;12.20;6.95;;;27.70;87.80;;;;;;4168765;28;20052;-71
2021/12/25 05:27:03;;;;;;;12.52;6.65;;;27.90;87.70;;;;;;4196081;28;20041;-71
2021/12/25 05:29:09;;;;;;;9.98;6.53;;;28.10;87.00;;;;;;4170454;28;20501;-71
2021/12/25 05:31:14;;;;;;;9.32;5.75;;;28.10;87.30;;;;;;4172554;28;20699;-71
2021/12/25 05:33:39;;;;;;;8.85;6.18;;;28.00;86.90;;;;;;4172031;28;20048;-71
2021/12/25 05:35:54;;;;;;;9.32;5.97;;;27.90;87.00;;;;;;4157872;28;20087;-71
2021/12/25 05:38:14;;;;;;;8.90;5.50;;;27.90;87.20;;;;;;4172636;28;20479;-70
2021/12/25 05:40:24;;;;;;;11.18;6.00;;;27.90;87.10;;;;;;4172877;28;20049;-70
2021/12/25 05:42:28;;;;;;;11.18;6.15;;;28.00;86.90;;;;;;4172894;28;20063;-71
2021/12/25 05:44:34;;;;;;;9.48;6.10;;;27.90;87.10;;;;;;4201886;28;20051;-71
2021/12/25 05:46:47;;;;;;;8.70;5.88;;;28.00;87.40;;;;;;4170870;28;20045;-71
2021/12/25 05:48:53;;;;;;;7.70;5.68;;;27.90;86.80;;;;;;4172256;28;20140;-71
2021/12/25 05:51:21;;;;;;;9.93;5.47;;;27.90;86.90;;;;;;4167407;28;20041;-71
2021/12/25 05:53:42;;;;;;;7.07;5.28;;;28.00;86.90;;;;;;4197002;28;20083;-71
2021/12/25 05:55:58;;;;;;;7.63;5.45;;;28.00;86.90;;;;;;4173863;28;20056;-70
2021/12/25 05:58:23;;;;;;;7.97;4.85;;;28.00;86.90;;;;;;4172686;28;20041;-70
2021/12/25 06:00:39;;;;;;;9.73;5.30;;;28.00;86.70;;;;;;4172426;28;20126;-72
2021/12/25 06:02:45;;;;;;;9.77;5.30;;;28.00;86.40;;;;;;4172074;28;20146;-71
2021/12/25 06:04:56;;;;;;;7.57;5.18;;;28.00;86.10;;;;;;4174001;28;20071;-71
2021/12/25 06:07:02;;;;;;;6.63;5.20;;;28.10;86.10;;;;;;4174016;28;20593;-72
2021/12/25 06:09:08;;;;;;;7.32;5.22;;;28.20;85.70;;;;;;4172265;28;20120;-71
2021/12/25 06:11:16;;;;;;;9.27;5.18;;;28.10;86.10;;;;;;4174552;28;20052;-72
2021/12/25 06:13:22;;;;;;;7.63;5.63;;;28.10;86.30;;;;;;4173968;28;20136;-71
2021/12/25 06:15:30;;;;;;;6.55;5.00;;;28.10;85.80;;;;;;4174595;28;20044;-70
2021/12/25 06:17:56;;;;;;;14.70;5.38;;;28.10;85.60;;;;;;4175321;28;20127;-71
2021/12/25 06:20:12;;;;;;;10.73;4.95;;;28.20;85.30;;;;;;4194415;28;20040;-72
2021/12/25 06:22:29;;;;;;;9.02;4.45;;;28.20;84.80;;;;;;4174369;28;20069;-72
2021/12/25 06:24:43;;;;;;;8.38;4.80;;;28.30;84.70;;;;;;4169781;28;20064;-72
2021/12/25 06:26:59;;;;;;;5.00;4.22;;;28.30;84.30;;;;;;4176787;28;20119;-72
2021/12/25 06:29:19;;;;;;;6.07;4.45;;;28.30;83.60;;;;;;4177265;28;20135;-71
2021/12/25 06:31:42;;;;;;;9.23;3.92;;;28.30;83.50;;;;;;4196053;28;20399;-71
2021/12/25 06:34:07;;;;;;;6.15;4.03;;;28.30;83.20;;;;;;4173858;28;20684;-70
2021/12/25 06:36:25;;;;;;;5.35;4.05;;;28.40;83.00;;;;;;4173815;28;20580;-71
2021/12/25 06:38:40;;;;;;;8.35;5.05;;;28.50;83.30;;;;;;4175003;28;20053;-71
2021/12/25 06:40:55;;;;;;;6.13;4.55;;;28.50;83.10;;;;;;4177594;28;20111;-71
2021/12/25 06:43:01;;;;;;;9.18;4.40;;;28.50;82.70;;;;;;4198552;28;20054;-71
2021/12/25 06:45:06;;;;;;;7.63;4.65;;;28.50;82.50;;;;;;4193293;28;20036;-71
2021/12/25 06:47:11;;;;;;;5.65;4.32;;;28.60;83.00;;;;;;4175462;28;20044;-72
2021/12/25 06:49:19;;;;;;;6.60;4.35;;;28.60;83.20;;;;;;4173982;28;20033;-71
2021/12/25 06:51:36;;;;;;;6.75;4.47;;;28.80;83.00;;;;;;4174730;28;20049;-71
2021/12/25 06:53:50;;;;;;;8.57;3.92;;;28.90;83.00;;;;;;4201856;28;20044;-71
2021/12/25 06:56:07;;;;;;;5.70;4.05;;;29.00;82.40;;;;;;4171925;28;20044;-70
2021/12/25 06:58:29;;;;;;;6.85;4.22;;;28.90;81.30;;;;;;4175848;28;20472;-70
2021/12/25 07:00:35;;;;;;;8.23;4.72;;;28.80;81.30;;;;;;4175269;28;20426;-72
2021/12/25 07:02:42;;;;;;;12.43;5.15;;;28.80;81.80;;;;;;4174101;28;20052;-71
2021/12/25 07:04:58;;;;;;;5.88;4.70;;;28.80;82.20;;;;;;4173113;28;20045;-73
2021/12/25 07:07:17;;;;;;;14.95;5.43;;;28.90;82.70;;;;;;4176381;28;20095;-71
2021/12/25 07:09:42;;;;;;;9.38;5.40;;;28.90;82.60;;;;;;4177158;28;20041;-72
2021/12/25 07:11:59;;;;;;;9.38;5.93;;;28.80;82.50;;;;;;4180252;28;20057;-71
2021/12/25 07:14:23;;;;;;;10.07;4.72;;;28.80;82.70;;;;;;4180263;28;20044;-72
2021/12/25 07:16:47;;;;;;;8.90;5.07;;;28.70;82.50;;;;;;4179609;28;20047;-68
2021/12/25 07:19:04;;;;;;;10.20;5.47;;;28.80;82.60;;;;;;4179048;28;20095;-71
2021/12/25 07:21:20;;;;;;;10.70;5.95;;;28.90;82.40;;;;;;4204496;28;20059;-71
2021/12/25 07:23:38;;;;;;;9.80;5.57;;;29.00;82.20;;;;;;4175531;28;20523;-70
2021/12/25 07:25:57;;;;;;;11.10;4.78;;;29.00;81.90;;;;;;4175637;28;20080;-72
2021/12/25 07:28:23;;;;;;;7.88;4.10;;;29.10;82.00;;;;;;4176720;28;20522;-73
2021/12/25 07:30:28;;;;;;;7.88;4.38;;;29.10;81.20;;;;;;4176825;28;20888;-71
2021/12/25 07:32:32;;;;;;;10.52;5.05;;;29.10;80.70;;;;;;4177982;28;20075;-72
2021/12/25 07:34:37;;;;;;;8.43;5.03;;;29.10;81.20;;;;;;4169538;28;20068;-72
2021/12/25 07:36:42;;;;;;;10.85;5.57;;;29.10;81.40;;;;;;4177714;28;20063;-72
2021/12/25 07:38:48;;;;;;;8.35;4.75;;;29.00;82.10;;;;;;4173963;28;20098;-72
2021/12/25 07:40:52;;;;;;;6.93;4.72;;;29.10;81.20;;;;;;4175944;28;20107;-71
2021/12/25 07:42:57;;;;;;;8.43;5.53;;;29.10;81.50;;;;;;4176451;28;20076;-72
2021/12/25 07:45:22;;;;;;;6.72;4.68;;;29.10;82.20;;;;;;4177011;28;20059;-72
2021/12/25 07:47:26;;;;;;;11.55;4.90;;;29.30;81.70;;;;;;4177953;28;20063;-72
2021/12/25 07:49:32;;;;;;;6.65;4.32;;;29.40;81.50;;;;;;4176715;28;20133;-72
2021/12/25 07:51:36;;;;;;;7.43;4.65;;;29.40;81.50;;;;;;4177161;28;20049;-72
2021/12/25 07:53:43;;;;;;;7.70;4.85;;;29.50;81.30;;;;;;4177269;28;20391;-72
2021/12/25 07:55:48;;;;;;;7.45;4.30;;;29.40;81.40;;;;;;4176905;28;20530;-72
2021/12/25 07:57:52;;;;;;;7.60;4.25;;;29.50;81.30;;;;;;4177223;28;20074;-72
2021/12/25 07:59:57;;;;;;;8.43;4.32;;;29.40;81.00;;;;;;4174832;28;20051;-71
2021/12/25 08:02:02;;;;;;;6.15;4.60;;;29.40;80.80;;;;;;4176873;28;20041;-71
2021/12/25 08:04:07;;;;;;;5.35;3.88;;;29.50;81.40;;;;;;4176784;28;20120;-71
2021/12/25 08:06:12;;;;;;;7.70;4.10;;;29.50;81.20;;;;;;4176480;28;20076;-72
2021/12/25 08:08:17;;;;;;;6.50;4.35;;;29.50;80.90;;;;;;4176955;28;20033;-72
2021/12/25 08:10:21;;;;;;;9.63;4.28;;;29.50;80.80;;;;;;4174565;28;20060;-71
2021/12/25 08:12:29;;;;;;;8.68;4.13;;;29.50;80.90;;;;;;4176861;28;20087;-72
2021/12/25 08:14:34;;;;;;;7.20;4.50;;;29.40;81.00;;;;;;4176819;28;20067;-71
2021/12/25 08:16:40;;;;;;;6.88;4.00;;;29.40;81.10;;;;;;4176437;28;20434;-71
2021/12/25 08:18:46;;;;;;;10.80;4.28;;;29.30;81.30;;;;;;4174027;28;20470;-71
2021/12/25 08:21:10;;;;;;;7.60;4.25;;;29.30;81.40;;;;;;4176697;28;20499;-71
2021/12/25 08:23:29;;;;;;;6.25;4.50;;;29.30;81.40;;;;;;4176555;28;20036;-72
2021/12/25 08:25:46;;;;;;;5.63;4.40;;;29.40;81.40;;;;;;4176294;28;20444;-71
2021/12/25 08:28:10;;;;;;;7.15;4.70;;;29.40;81.20;;;;;;4176458;28;20040;-71
2021/12/25 08:30:35;;;;;;;6.60;4.30;;;29.30;81.50;;;;;;4176527;28;20376;-72
2021/12/25 08:32:55;;;;;;;9.85;4.55;;;29.30;81.90;;;;;;4177205;28;20118;-71
2021/12/25 08:35:13;;;;;;;9.32;4.75;;;29.30;82.00;;;;;;4175817;28;20052;-73
2021/12/25 08:37:22;;;;;;;7.68;4.38;;;29.30;82.00;;;;;;4174745;28;20057;-73
2021/12/25 08:39:27;;;;;;;7.90;4.53;;;29.30;82.30;;;;;;4176342;28;20399;-73
2021/12/25 08:41:32;;;;;;;6.22;4.75;;;29.30;82.20;;;;;;4175505;28;20098;-72
2021/12/25 08:43:45;;;;;;;7.22;4.75;;;29.30;82.40;;;;;;4176639;28;20083;-72
2021/12/25 08:46:00;;;;;;;8.80;5.03;;;29.20;82.50;;;;;;4175658;28;20398;-72
2021/12/25 08:48:19;;;;;;;7.50;5.50;;;29.20;82.60;;;;;;4175143;28;20407;-72
2021/12/25 08:50:23;;;;;;;9.15;5.60;;;29.20;82.60;;;;;;4176575;28;20407;-72
2021/12/25 08:52:29;;;;;;;13.80;5.63;;;29.10;82.70;;;;;;4176685;28;20102;-71
2021/12/25 08:54:34;;;;;;;7.40;4.95;;;29.10;82.60;;;;;;4176185;28;20049;-72
2021/12/25 08:56:39;;;;;;;12.63;4.93;;;29.00;82.20;;;;;;4174208;28;20047;-72
2021/12/25 08:58:44;;;;;;;8.25;4.68;;;28.90;82.20;;;;;;4176193;28;20052;-72
2021/12/25 09:00:54;;;;;;;10.30;4.93;;;28.90;82.30;;;;;;4174580;28;20064;-71
2021/12/25 09:02:59;;;;;;;6.43;4.50;;;28.90;82.40;;;;;;4176002;28;20053;-71
2021/12/25 09:05:04;;;;;;;5.43;4.45;;;28.90;82.50;;;;;;4175622;28;20048;-72
2021/12/25 09:07:09;;;;;;;8.75;4.85;;;28.90;82.50;;;;;;4174682;28;20103;-72
2021/12/25 09:09:13;;;;;;;12.27;5.53;;;28.90;82.70;;;;;;4176123;28;20564;-72
2021/12/25 09:11:20;;;;;;;10.40;6.53;;;28.90;83.00;;;;;;4174591;28;20408;-72
2021/12/25 09:13:25;;;;;;;12.50;6.78;;;28.90;83.10;;;;;;4174047;28;20517;-73
2021/12/25 09:15:29;;;;;;;11.75;7.00;;;28.90;83.20;;;;;;4175839;28;20052;-72
2021/12/25 09:17:34;;;;;;;15.30;6.25;;;28.90;83.20;;;;;;4175662;28;20094;-71
2021/12/25 09:19:41;;;;;;;9.15;5.82;;;28.80;83.20;;;;;;4171633;28;20125;-72
2021/12/25 09:21:46;;;;;;;13.00;6.30;;;28.80;83.20;;;;;;4174253;28;20420;-70
2021/12/25 09:23:51;;;;;;;13.82;9.45;;;28.80;83.30;;;;;;4175456;28;20049;-71
2021/12/25 09:25:55;;;;;;;16.83;11.45;;;28.80;83.30;;;;;;4175298;28;20505;-71
2021/12/25 09:28:13;;;;;;;25.35;12.95;;;28.80;83.30;;;;;;4175063;28;20564;-71
2021/12/25 09:30:19;;;;;;;21.20;14.20;;;28.80;83.40;;;;;;4175655;28;20352;-71
2021/12/25 09:32:24;;;;;;;24.15;14.70;;;28.90;84.20;;;;;;4175976;28;20052;-71
2021/12/25 09:34:29;;;;;;;22.25;14.18;;;28.90;83.90;;;;;;4174362;28;20045;-70
2021/12/25 09:36:34;;;;;;;22.50;14.50;;;28.90;83.90;;;;;;4175255;28;20049;-70
2021/12/25 09:38:41;;;;;;;15.77;10.75;;;29.00;83.80;;;;;;4172426;28;20040;-70
2021/12/25 09:40:47;;;;;;;16.83;11.13;;;28.90;83.50;;;;;;4171750;28;20049;-71
2021/12/25 09:42:52;;;;;;;19.95;9.88;;;28.90;83.80;;;;;;4174608;28;20047;-71
2021/12/25 09:44:59;;;;;;;11.50;8.68;;;28.90;83.90;;;;;;4173021;28;20049;-71
2021/12/25 09:47:07;;;;;;;18.58;8.82;;;28.80;84.00;;;;;;4175320;28;20441;-71
2021/12/25 09:49:11;;;;;;;16.02;8.57;;;28.80;84.20;;;;;;4175380;28;20123;-72
2021/12/25 09:51:15;;;;;;;20.08;8.02;;;28.80;84.30;;;;;;4175699;28;20040;-69
2021/12/25 09:53:20;;;;;;;41.60;8.88;;;28.80;84.20;;;;;;4175985;28;20067;-71
2021/12/25 09:55:24;;;;;;;17.75;7.57;;;28.80;84.40;;;;;;4175754;28;20075;-69
2021/12/25 09:57:29;;;;;;;15.00;7.30;;;28.70;84.20;;;;;;4174438;28;20577;-73
2021/12/25 09:59:34;;;;;;;14.88;6.65;;;28.70;84.10;;;;;;4175294;28;20041;-73
2021/12/25 10:01:49;;;;;;;13.95;6.00;;;28.70;83.80;;;;;;4175499;28;20140;-73
2021/12/25 10:03:54;;;;;;;10.98;6.90;;;28.80;84.00;;;;;;4173590;28;20280;-72
2021/12/25 10:05:59;;;;;;;12.07;6.65;;;28.70;83.90;;;;;;4175962;28;20046;-72
2021/12/25 10:08:07;;;;;;;10.10;7.28;;;28.80;84.10;;;;;;4170043;28;20424;-73
2021/12/25 10:10:14;;;;;;;12.88;7.22;;;28.70;84.20;;;;;;4175729;28;20391;-73
2021/12/25 10:12:18;;;;;;;23.63;14.65;;;28.70;84.30;;;;;;4175575;28;20571;-74
2021/12/25 10:14:22;;;;;;;20.90;12.25;;;28.60;84.40;;;;;;4174850;28;20555;-73
2021/12/25 10:16:29;;;;;;;26.95;11.80;;;28.60;84.70;;;;;;4175120;28;20457;-74
2021/12/25 10:18:35;;;;;;;14.00;8.75;;;28.60;84.80;;;;;;4173352;28;20131;-73
2021/12/25 10:20:39;;;;;;;14.90;7.82;;;28.50;84.80;;;;;;4175779;28;20052;-73
2021/12/25 10:23:07;;;;;;;15.60;6.88;;;28.50;84.80;;;;;;4173764;28;20519;-73
2021/12/25 10:25:15;;;;;;;18.75;6.35;;;28.50;85.60;;;;;;4174219;28;20065;-74
2021/12/25 10:27:20;;;;;;;12.45;6.68;;;28.50;85.10;;;;;;4199339;28;20227;-73
2021/12/25 10:29:29;;;;;;;11.70;6.70;;;28.40;85.20;;;;;;4173728;28;20074;-73
2021/12/25 10:31:34;;;;;;;15.95;6.63;;;28.40;85.90;;;;;;4175654;28;20073;-74
2021/12/25 10:33:44;;;;;;;10.35;6.07;;;28.40;85.30;;;;;;4175837;28;20591;-74
2021/12/25 10:35:48;;;;;;;10.93;7.47;;;28.40;85.40;;;;;;4173274;28;20128;-74
2021/12/25 10:37:52;;;;;;;13.82;7.65;;;28.30;85.50;;;;;;4175415;28;20336;-74
2021/12/25 10:39:57;;;;;;;13.02;7.32;;;28.20;85.60;;;;;;4175199;28;20048;-73
2021/12/25 10:42:15;;;;;;;15.10;7.70;;;28.20;85.80;;;;;;4172807;28;20470;-73
2021/12/25 10:44:25;;;;;;;25.77;8.10;;;28.20;85.80;;;;;;4173308;28;20388;-73
2021/12/25 10:46:30;;;;;;;15.73;7.80;;;28.20;86.00;;;;;;4169945;28;20546;-73
2021/12/25 10:48:34;;;;;;;10.90;7.03;;;28.20;86.10;;;;;;4199410;28;20039;-72
2021/12/25 10:50:43;;;;;;;14.02;6.97;;;28.20;86.00;;;;;;4197209;28;20105;-73
2021/12/25 10:52:48;;;;;;;16.13;6.55;;;28.20;86.10;;;;;;4173596;28;20127;-73
2021/12/25 10:55:12;;;;;;;13.90;6.60;;;28.20;86.20;;;;;;4175239;28;20088;-73
2021/12/25 10:57:40;;;;;;;14.50;7.07;;;28.20;86.50;;;;;;4186455;28;20032;-74
2021/12/25 10:59:45;;;;;;;9.10;6.80;;;28.10;86.50;;;;;;4178194;28;20048;-73
2021/12/25 11:01:50;;;;;;;20.20;7.30;;;28.10;86.60;;;;;;4178202;28;20511;-73
2021/12/25 11:03:56;;;;;;;14.98;7.82;;;28.00;86.60;;;;;;4178353;28;20049;-72
2021/12/25 11:06:06;;;;;;;14.80;7.38;;;28.00;86.60;;;;;;4178093;28;20392;-74
2021/12/25 11:08:19;;;;;;;15.43;8.40;;;28.00;86.80;;;;;;4176740;28;20068;-73
2021/12/25 11:10:24;;;;;;;15.85;8.75;;;28.00;86.80;;;;;;4175593;28;20071;-73
2021/12/25 11:12:30;;;;;;;13.25;9.23;;;28.00;86.90;;;;;;4175106;28;20052;-72
2021/12/25 11:14:34;;;;;;;17.25;9.20;;;27.90;87.00;;;;;;4174135;28;20516;-72
2021/12/25 11:16:40;;;;;;;14.20;9.07;;;27.90;87.00;;;;;;4174949;28;20049;-73
2021/12/25 11:19:13;;;;;;;16.58;8.75;;;27.90;87.10;;;;;;4175408;28;20076;-73
2021/12/25 11:21:19;;;;;;;21.52;11.05;;;27.90;87.20;;;;;;4177523;28;20045;-72
2021/12/25 11:23:25;;;;;;;16.67;12.25;;;27.90;87.30;;;;;;4175449;28;20319;-73
2021/12/25 11:25:30;;;;;;;21.55;12.55;;;27.90;87.50;;;;;;4177782;28;20059;-74
2021/12/25 11:27:34;;;;;;;20.42;11.98;;;27.90;87.60;;;;;;4176640;28;20068;-74
2021/12/25 11:29:39;;;;;;;21.45;13.27;;;27.80;87.80;;;;;;4175760;28;20081;-75
2021/12/25 11:31:43;;;;;;;23.65;13.20;;;27.80;87.90;;;;;;4176013;28;20071;-74
2021/12/25 11:33:50;;;;;;;24.20;14.35;;;27.70;88.00;;;;;;4177809;28;20073;-74
2021/12/25 11:35:55;;;;;;;24.73;14.82;;;27.70;88.00;;;;;;4177276;28;20053;-75
2021/12/25 11:38:00;;;;;;;26.13;15.65;;;27.80;88.30;;;;;;4177801;28;20064;-75
2021/12/25 11:40:07;;;;;;;23.52;15.40;;;27.70;88.40;;;;;;4175503;28;20056;-73
2021/12/25 11:42:13;;;;;;;30.65;18.80;;;27.70;88.50;;;;;;4178032;28;20045;-73
2021/12/25 11:44:36;;;;;;;46.30;22.45;;;27.70;88.70;;;;;;4178060;28;20051;-73
2021/12/25 11:46:44;;;;;;;46.40;28.05;;;27.70;88.70;;;;;;4175465;28;20055;-72
2021/12/25 11:49:05;;;;;;;47.28;29.02;;;27.70;88.80;;;;;;4175089;28;20037;-73
2021/12/25 11:51:28;;;;;;;53.28;32.22;;;27.70;89.00;;;;;;4174685;28;20045;-72
2021/12/25 11:53:46;;;;;;;56.47;34.67;;;27.60;89.30;;;;;;4202038;28;20043;-73
2021/12/25 11:58:38;;;;;;;53.55;31.10;;;27.60;89.40;;;;;;4177056;28;20055;-75
2021/12/25 12:00:47;;;;;;;59.17;30.05;;;27.60;89.50;;;;;;4200890;28;20510;-75
2021/12/25 12:02:53;;;;;;;50.40;27.45;;;27.60;89.60;;;;;;4177597;28;20442;-73
2021/12/25 12:05:24;;;;;;;39.40;24.38;;;27.60;89.60;;;;;;4177497;28;20079;-75
2021/12/25 12:07:52;;;;;;;41.05;23.40;;;27.60;89.80;;;;;;4175370;28;20076;-73
2021/12/25 12:10:16;;;;;;;37.58;20.80;;;27.50;90.00;;;;;;4184742;28;20072;-74
2021/12/25 12:12:40;;;;;;;28.98;17.92;;;27.50;90.00;;;;;;4176201;28;20037;-74
2021/12/25 12:15:18;;;;;;;29.27;17.13;;;27.40;90.00;;;;;;4176544;28;20118;-74
2021/12/25 12:17:36;;;;;;;24.00;15.13;;;27.50;90.00;;;;;;4172274;28;20385;-74